createdAt,value
2017-10-14T00:01:28.828Z,21.00
2017-10-14T00:03:57.999Z,20.60
2017-10-14T00:06:26.351Z,20.20
2017-10-14T00:08:54.992Z,19.30
2017-10-14T00:11:24.152Z,19.07
2017-10-14T00:13:53.176Z,20.40
2017-10-14T00:16:22.046Z,19.27
2017-10-14T00:18:51.649Z,19.83
2017-10-14T00:21:20.877Z,19.53
2017-10-14T00:23:49.954Z,18.63
2017-10-14T00:26:19.029Z,18.57
2017-10-14T00:28:48.616Z,18.70
2017-10-14T00:31:17.196Z,19.20
2017-10-14T00:33:47.370Z,18.70
2017-10-14T00:36:15.719Z,19.47
2017-10-14T00:38:44.918Z,19.00
2017-10-14T00:41:17.118Z,17.60
2017-10-14T00:43:45.995Z,16.80
2017-10-14T00:46:14.366Z,16.60
2017-10-14T00:48:42.738Z,16.77
2017-10-14T00:51:12.199Z,17.70
2017-10-14T00:53:42.162Z,17.63
2017-10-14T00:56:11.908Z,15.73
2017-10-14T00:58:40.371Z,16.43
2017-10-14T01:01:09.611Z,16.70
2017-10-14T01:03:38.809Z,15.60
2017-10-14T01:06:07.951Z,15.70
2017-10-14T01:08:37.046Z,16.27
2017-10-14T01:11:06.169Z,16.27
2017-10-14T01:13:35.138Z,16.30
2017-10-14T01:16:04.936Z,15.53
2017-10-14T01:18:33.321Z,15.60
2017-10-14T01:21:01.672Z,15.50
2017-10-14T01:23:30.972Z,16.60
2017-10-14T01:25:59.556Z,16.10
2017-10-14T01:28:28.731Z,15.33
2017-10-14T01:30:57.712Z,16.27
2017-10-14T01:33:27.409Z,14.70
2017-10-14T01:35:55.763Z,14.53
2017-10-14T01:38:24.105Z,15.50
2017-10-14T01:40:53.133Z,15.77
2017-10-14T01:43:21.483Z,16.47
2017-10-14T01:45:49.814Z,15.67
2017-10-14T01:48:18.913Z,16.27
2017-10-14T01:50:47.294Z,15.77
2017-10-14T01:53:15.638Z,15.20
2017-10-14T01:55:44.331Z,16.33
2017-10-14T01:58:12.669Z,16.10
2017-10-14T02:00:41.013Z,14.50
2017-10-14T02:03:09.703Z,16.43
2017-10-14T02:05:38.070Z,15.63
2017-10-14T02:08:07.413Z,16.30
2017-10-14T02:10:35.871Z,16.70
2017-10-14T02:13:05.157Z,16.83
2017-10-14T02:15:33.520Z,16.30
2017-10-14T02:18:02.786Z,16.60
2017-10-14T02:20:32.342Z,16.93
2017-10-14T02:23:01.513Z,16.40
2017-10-14T02:25:30.685Z,17.00
2017-10-14T02:27:59.979Z,16.67
2017-10-14T02:30:28.859Z,16.50
2017-10-14T02:32:57.960Z,16.53
2017-10-14T02:35:27.254Z,18.10
2017-10-14T02:37:55.601Z,16.90
2017-10-14T02:40:24.953Z,17.80
2017-10-14T02:42:53.305Z,16.53
2017-10-14T02:45:21.685Z,17.57
2017-10-14T02:47:50.056Z,15.97
2017-10-14T02:50:19.249Z,16.77
2017-10-14T02:52:49.236Z,16.67
2017-10-14T02:55:17.710Z,16.03
2017-10-14T02:57:46.838Z,17.50
2017-10-14T03:00:16.954Z,15.70
2017-10-14T03:02:46.232Z,17.27
2017-10-14T03:05:16.317Z,17.60
2017-10-14T03:07:45.785Z,16.37
2017-10-14T03:10:15.635Z,16.27
2017-10-14T03:12:44.018Z,17.50
2017-10-14T03:15:13.088Z,16.67
2017-10-14T03:17:42.838Z,17.73
2017-10-14T03:20:11.228Z,17.57
2017-10-14T03:22:39.621Z,17.07
2017-10-14T03:25:10.580Z,18.10
2017-10-14T03:27:39.781Z,16.93
2017-10-14T03:30:09.483Z,17.77
2017-10-14T03:32:39.442Z,18.17
2017-10-14T03:35:09.381Z,18.10
2017-10-14T03:37:39.936Z,17.50
2017-10-14T03:40:09.392Z,16.60
2017-10-14T03:42:37.725Z,18.10
2017-10-14T03:45:06.070Z,18.10
2017-10-14T03:47:36.724Z,18.93
2017-10-14T03:50:05.108Z,17.53
2017-10-14T03:52:33.470Z,17.90
2017-10-14T03:55:02.394Z,17.53
2017-10-14T03:57:31.341Z,17.67
2017-10-14T04:00:00.887Z,18.30
2017-10-14T04:02:30.277Z,17.47
2017-10-14T04:04:59.397Z,18.13
2017-10-14T04:07:27.855Z,17.50
2017-10-14T04:09:57.342Z,17.47
2017-10-14T04:12:28.418Z,16.40
2017-10-14T04:14:58.158Z,18.30
2017-10-14T04:17:26.580Z,16.87
2017-10-14T04:19:56.042Z,19.13
2017-10-14T04:22:25.307Z,18.07
2017-10-14T04:24:54.071Z,18.30
2017-10-14T04:27:22.443Z,19.07
2017-10-14T04:29:51.492Z,17.90
2017-10-14T04:32:22.166Z,16.63
2017-10-14T04:34:50.518Z,18.47
2017-10-14T04:37:20.559Z,18.27
2017-10-14T04:39:50.239Z,18.13
2017-10-14T04:42:20.592Z,18.50
2017-10-14T04:44:49.039Z,17.43
2017-10-14T04:47:19.532Z,17.77
2017-10-14T04:49:48.860Z,17.20
2017-10-14T04:52:18.499Z,17.80
2017-10-14T04:54:47.795Z,17.10
2017-10-14T04:57:17.037Z,17.43
2017-10-14T04:59:46.163Z,18.20
2017-10-14T05:02:15.498Z,18.33
2017-10-14T05:04:44.272Z,17.50
2017-10-14T05:07:13.299Z,17.00
2017-10-14T05:09:42.796Z,18.53
2017-10-14T05:12:11.483Z,17.87
2017-10-14T05:14:40.526Z,19.43
2017-10-14T05:17:11.066Z,17.00
2017-10-14T05:19:40.807Z,18.30
2017-10-14T05:22:10.549Z,19.13
2017-10-14T05:24:40.561Z,17.30
2017-10-14T05:27:08.899Z,19.00
2017-10-14T05:29:38.515Z,19.60
2017-10-14T05:32:10.082Z,19.37
2017-10-14T05:34:39.953Z,20.47
2017-10-14T05:37:09.006Z,20.73
2017-10-14T05:39:37.395Z,19.43
2017-10-14T05:42:06.217Z,19.77
2017-10-14T05:44:34.587Z,20.27
2017-10-14T05:47:05.863Z,19.80
2017-10-14T05:49:34.225Z,19.90
2017-10-14T05:52:04.362Z,22.10
2017-10-14T05:54:36.232Z,20.50
2017-10-14T05:57:04.655Z,22.17
2017-10-14T05:59:33.425Z,22.53
2017-10-14T06:02:01.853Z,22.90
2017-10-14T06:04:30.910Z,22.30
2017-10-14T06:06:59.519Z,21.73
2017-10-14T06:09:27.897Z,22.10
2017-10-14T06:11:57.066Z,22.10
2017-10-14T06:14:26.599Z,21.60
2017-10-14T06:16:55.205Z,22.40
2017-10-14T06:19:24.182Z,22.27
2017-10-14T06:21:54.036Z,22.47
2017-10-14T06:24:22.433Z,22.07
2017-10-14T06:26:51.639Z,22.13
2017-10-14T06:29:21.656Z,23.60
2017-10-14T06:31:50.648Z,24.20
2017-10-14T06:34:19.011Z,24.70
2017-10-14T06:36:47.352Z,24.60
2017-10-14T06:39:16.474Z,25.30
2017-10-14T06:41:45.906Z,24.40
2017-10-14T06:44:14.870Z,25.30
2017-10-14T06:46:43.837Z,24.83
2017-10-14T06:49:12.190Z,24.10
2017-10-14T06:51:40.794Z,24.70
2017-10-14T06:54:09.945Z,25.47
2017-10-14T06:56:39.064Z,24.70
2017-10-14T06:59:07.386Z,24.20
2017-10-14T07:01:35.922Z,25.67
2017-10-14T07:04:04.349Z,25.30
2017-10-14T07:06:32.697Z,25.50
2017-10-14T07:09:02.868Z,27.27
2017-10-14T07:11:31.984Z,26.47
2017-10-14T07:14:00.329Z,25.63
2017-10-14T07:16:30.183Z,25.77
2017-10-14T07:18:59.316Z,24.67
2017-10-14T07:21:27.932Z,25.87
2017-10-14T07:23:57.543Z,24.90
2017-10-14T07:26:26.157Z,24.80
2017-10-14T07:28:54.522Z,24.20
2017-10-14T07:31:24.387Z,25.57
2017-10-14T07:33:52.738Z,24.60
2017-10-14T07:36:21.067Z,23.83
2017-10-14T07:38:50.207Z,24.30
2017-10-14T07:41:19.399Z,24.10
2017-10-14T07:43:47.761Z,23.67
2017-10-14T07:46:16.327Z,24.10
2017-10-14T07:48:45.045Z,25.00
2017-10-14T07:51:14.350Z,26.10
2017-10-14T07:53:43.407Z,26.43
2017-10-14T07:56:11.787Z,25.53
2017-10-14T07:58:41.032Z,26.10
2017-10-14T08:01:09.724Z,24.60
2017-10-14T08:03:38.086Z,27.00
2017-10-14T08:06:07.571Z,27.23
2017-10-14T08:08:36.065Z,25.40
2017-10-14T08:11:04.409Z,25.20
2017-10-14T08:13:32.751Z,24.67
2017-10-14T08:16:01.813Z,24.37
2017-10-14T08:18:30.979Z,25.80
2017-10-14T08:21:00.583Z,24.83
2017-10-14T08:23:29.845Z,23.80
2017-10-14T08:25:59.117Z,24.97
2017-10-14T08:28:27.462Z,24.60
2017-10-14T08:30:56.387Z,25.47
2017-10-14T08:33:25.481Z,24.10
2017-10-14T08:35:55.326Z,22.93
2017-10-14T08:38:23.725Z,22.93
2017-10-14T08:40:54.738Z,23.70
2017-10-14T08:43:24.053Z,20.73
2017-10-14T08:45:52.487Z,22.10
2017-10-14T08:48:22.559Z,23.00
2017-10-14T08:50:51.539Z,22.90
2017-10-14T08:53:21.143Z,22.70
2017-10-14T08:55:51.259Z,22.63
2017-10-14T08:58:22.156Z,22.83
2017-10-14T09:00:51.572Z,23.80
2017-10-14T09:03:21.360Z,24.23
2017-10-14T09:05:49.998Z,24.80
2017-10-14T09:08:18.352Z,22.33
2017-10-14T09:10:46.831Z,21.73
2017-10-14T09:13:16.366Z,22.97
2017-10-14T09:15:44.729Z,22.03
2017-10-14T09:18:13.913Z,23.10
2017-10-14T09:20:44.310Z,21.50
2017-10-14T09:23:12.817Z,22.03
2017-10-14T09:25:42.063Z,20.43
2017-10-14T09:28:11.249Z,21.33
2017-10-14T09:30:39.597Z,20.77
2017-10-14T09:33:09.466Z,21.83
2017-10-14T09:35:37.953Z,21.50
2017-10-14T09:38:06.337Z,20.00
2017-10-14T09:40:35.677Z,21.43
2017-10-14T09:43:04.831Z,19.33
2017-10-14T09:45:33.208Z,22.00
2017-10-14T09:48:01.568Z,21.77
2017-10-14T09:50:30.890Z,22.67
2017-10-14T09:52:59.232Z,20.60
2017-10-14T09:55:30.100Z,21.40
2017-10-14T09:57:59.314Z,20.97
2017-10-14T10:00:27.679Z,21.10
2017-10-14T10:02:56.016Z,21.43
2017-10-14T10:05:24.633Z,20.30
2017-10-14T10:07:53.901Z,21.80
2017-10-14T10:10:22.499Z,19.63
2017-10-14T10:12:51.650Z,19.30
2017-10-14T10:15:20.299Z,16.90
2017-10-14T10:17:48.659Z,19.37
2017-10-14T10:20:20.400Z,18.13
2017-10-14T10:22:50.521Z,18.10
2017-10-14T10:25:19.723Z,17.37
2017-10-14T10:27:48.881Z,17.10
2017-10-14T10:30:19.776Z,15.40
2017-10-14T10:32:49.146Z,16.10
2017-10-14T10:35:18.852Z,16.87
2017-10-14T10:37:50.478Z,18.20
2017-10-14T10:40:19.067Z,18.40
2017-10-14T10:42:48.437Z,18.40
2017-10-14T10:45:17.708Z,19.87
2017-10-14T10:47:46.835Z,19.80
2017-10-14T10:50:15.168Z,20.20
2017-10-14T10:52:45.375Z,19.90
2017-10-14T10:55:14.743Z,19.50
2017-10-14T10:57:43.112Z,19.13
2017-10-14T11:00:12.129Z,20.50
2017-10-14T11:02:41.763Z,20.33
2017-10-14T11:05:10.117Z,19.83
2017-10-14T11:07:39.679Z,18.80
2017-10-14T11:10:08.046Z,19.70
2017-10-14T11:12:38.172Z,19.80
2017-10-14T11:15:10.476Z,20.00
2017-10-14T11:17:39.392Z,19.30
2017-10-14T11:20:08.629Z,20.27
2017-10-14T11:22:41.823Z,20.07
2017-10-14T11:25:11.210Z,19.93
2017-10-14T11:27:40.491Z,20.60
2017-10-14T11:30:09.721Z,22.77
2017-10-14T11:32:38.109Z,23.67
2017-10-14T11:35:08.007Z,20.97
2017-10-14T11:37:36.384Z,21.37
2017-10-14T11:40:06.269Z,22.60
2017-10-14T11:42:35.292Z,23.07
2017-10-14T11:45:04.418Z,21.10
2017-10-14T11:47:32.805Z,21.43
2017-10-14T11:50:01.465Z,22.10
2017-10-14T11:52:29.841Z,21.13
2017-10-14T11:54:59.418Z,22.10
2017-10-14T11:57:28.635Z,21.73
2017-10-14T11:59:57.915Z,23.80
2017-10-14T12:02:27.070Z,22.77
2017-10-14T12:04:57.360Z,23.50
2017-10-14T12:07:27.363Z,21.57
2017-10-14T12:09:56.271Z,23.60
2017-10-14T12:12:25.483Z,22.80
2017-10-14T12:14:54.632Z,23.37
2017-10-14T12:17:24.689Z,24.40
2017-10-14T12:19:54.050Z,22.80
2017-10-14T12:22:23.083Z,20.47
2017-10-14T12:24:52.756Z,22.47
2017-10-14T12:27:21.230Z,21.60
2017-10-14T12:29:50.595Z,22.63
2017-10-14T12:32:21.194Z,21.97
2017-10-14T12:34:51.426Z,23.30
2017-10-14T12:37:19.870Z,22.17
2017-10-14T12:39:49.002Z,20.47
2017-10-14T12:42:17.877Z,22.50
2017-10-14T12:44:46.955Z,21.43
2017-10-14T12:47:17.154Z,21.20
2017-10-14T12:49:45.733Z,24.37
2017-10-14T12:52:15.345Z,21.13
2017-10-14T12:54:43.697Z,21.10
2017-10-14T12:57:12.066Z,21.97
2017-10-14T12:59:40.837Z,22.10
2017-10-14T13:02:09.227Z,22.83
2017-10-14T13:04:38.157Z,21.33
2017-10-14T13:07:06.513Z,21.27
2017-10-14T13:09:36.337Z,19.70
2017-10-14T13:12:06.266Z,21.63
2017-10-14T13:14:35.298Z,21.07
2017-10-14T13:17:04.076Z,21.00
2017-10-14T13:19:33.148Z,20.97
2017-10-14T13:22:02.212Z,19.93
2017-10-14T13:24:31.578Z,22.00
2017-10-14T13:27:00.476Z,18.73
2017-10-14T13:29:29.076Z,21.10
2017-10-14T13:31:58.491Z,20.30
2017-10-14T13:34:27.647Z,19.70
2017-10-14T13:36:56.006Z,20.67
2017-10-14T13:39:24.373Z,20.10
2017-10-14T13:41:52.770Z,19.60
2017-10-14T13:44:21.690Z,19.80
2017-10-14T13:46:50.054Z,20.80
2017-10-14T13:49:18.437Z,21.77
2017-10-14T13:51:46.790Z,20.67
2017-10-14T13:54:15.963Z,20.73
2017-10-14T13:56:46.434Z,20.73
2017-10-14T13:59:14.828Z,22.27
2017-10-14T14:01:43.170Z,22.27
2017-10-14T14:04:12.155Z,20.43
2017-10-14T14:06:41.409Z,20.83
2017-10-14T14:09:10.795Z,21.17
2017-10-14T14:11:39.209Z,20.47
2017-10-14T14:14:09.034Z,20.93
2017-10-14T14:16:38.286Z,20.57
2017-10-14T14:19:08.500Z,21.60
2017-10-14T14:21:37.665Z,21.87
2017-10-14T14:24:06.934Z,22.30
2017-10-14T14:26:36.884Z,20.10
2017-10-14T14:29:06.728Z,18.40
2017-10-14T14:31:35.081Z,16.93
2017-10-14T14:34:03.462Z,17.13
2017-10-14T14:36:32.556Z,17.47
2017-10-14T14:39:01.466Z,17.33
2017-10-14T14:41:31.791Z,16.50
2017-10-14T14:44:01.510Z,18.33
2017-10-14T14:46:31.372Z,17.43
2017-10-14T14:49:00.372Z,18.33
2017-10-14T14:51:28.753Z,17.10
2017-10-14T14:53:57.116Z,21.97
2017-10-14T14:56:25.492Z,18.30
2017-10-14T14:58:54.610Z,18.30
2017-10-14T15:01:23.753Z,22.53
2017-10-14T15:03:53.238Z,19.40
2017-10-14T15:06:21.602Z,19.70
2017-10-14T15:08:51.471Z,19.93
2017-10-14T15:11:19.852Z,17.90
2017-10-14T15:13:48.213Z,19.67
2017-10-14T15:16:16.599Z,19.30
2017-10-14T15:18:45.408Z,18.50
2017-10-14T15:21:14.028Z,17.50
2017-10-14T15:23:42.416Z,19.87
2017-10-14T15:26:11.920Z,17.70
2017-10-14T15:28:41.307Z,17.33
2017-10-14T15:31:11.264Z,17.73
2017-10-14T15:33:40.461Z,18.77
2017-10-14T15:36:08.803Z,19.20
2017-10-14T15:38:39.435Z,18.87
2017-10-14T15:41:08.620Z,19.80
2017-10-14T15:43:36.987Z,19.93
2017-10-14T15:46:06.106Z,20.03
2017-10-14T15:48:36.498Z,21.90
2017-10-14T15:51:06.447Z,20.53
2017-10-14T15:53:35.529Z,21.97
2017-10-14T15:56:04.707Z,22.50
2017-10-14T15:58:33.304Z,24.60
2017-10-14T16:01:01.668Z,22.93
2017-10-14T16:03:30.120Z,22.73
2017-10-14T16:05:59.379Z,22.50
2017-10-14T16:08:28.864Z,23.00
2017-10-14T16:10:57.202Z,22.67
2017-10-14T16:13:25.548Z,21.60
2017-10-14T16:15:54.719Z,21.10
2017-10-14T16:18:23.767Z,18.90
2017-10-14T16:20:53.117Z,20.80
2017-10-14T16:23:22.205Z,20.20
2017-10-14T16:25:50.567Z,20.03
2017-10-14T16:28:18.929Z,20.20
2017-10-14T16:30:47.470Z,19.63
2017-10-14T16:33:15.930Z,21.00
2017-10-14T16:35:44.300Z,20.20
2017-10-14T16:38:12.687Z,18.80
2017-10-14T16:40:42.660Z,19.10
2017-10-14T16:43:12.949Z,19.80
2017-10-14T16:45:41.306Z,19.33
2017-10-14T16:48:15.497Z,18.73
2017-10-14T16:50:44.690Z,19.40
2017-10-14T16:53:13.847Z,23.00
2017-10-14T16:55:42.438Z,19.93
2017-10-14T16:58:11.771Z,21.07
2017-10-14T17:00:40.937Z,20.40
2017-10-14T17:03:09.315Z,19.63
2017-10-14T17:05:39.190Z,20.50
2017-10-14T17:08:08.549Z,20.03
2017-10-14T17:10:37.771Z,21.27
2017-10-14T17:13:06.875Z,22.80
2017-10-14T17:15:36.261Z,22.97
2017-10-14T17:18:05.776Z,21.77
2017-10-14T17:20:34.354Z,22.33
2017-10-14T17:23:02.709Z,23.13
2017-10-14T17:25:31.110Z,22.27
2017-10-14T17:28:00.947Z,21.97
2017-10-14T17:30:29.478Z,23.03
2017-10-14T17:33:00.644Z,21.50
2017-10-14T17:35:29.958Z,23.20
2017-10-14T17:37:58.372Z,26.60
2017-10-14T17:40:27.529Z,25.57
2017-10-14T17:42:56.039Z,26.60
2017-10-14T17:45:26.103Z,27.30
2017-10-14T17:47:55.811Z,27.50
2017-10-14T17:50:24.162Z,25.83
2017-10-14T17:52:52.821Z,26.70
2017-10-14T17:55:21.487Z,25.47
2017-10-14T17:57:50.855Z,26.17
2017-10-14T18:00:19.588Z,26.60
2017-10-14T18:02:48.374Z,25.90
2017-10-14T18:05:17.417Z,26.70
2017-10-14T18:07:46.631Z,25.70
2017-10-14T18:10:15.022Z,26.60
2017-10-14T18:12:45.103Z,27.73
2017-10-14T18:15:13.704Z,27.07
2017-10-14T18:17:43.098Z,28.43
2017-10-14T18:20:12.024Z,27.50
2017-10-14T18:22:40.646Z,28.13
2017-10-14T18:25:09.022Z,32.00
2017-10-14T18:27:37.407Z,31.60
2017-10-14T18:30:06.985Z,30.43
2017-10-14T18:32:35.661Z,33.57
2017-10-14T18:35:04.960Z,32.20
2017-10-14T18:37:34.084Z,32.43
2017-10-14T18:40:04.335Z,34.90
2017-10-14T18:42:32.929Z,31.93
2017-10-14T18:45:03.070Z,33.37
2017-10-14T18:47:31.450Z,35.50
2017-10-14T18:49:59.806Z,35.03
2017-10-14T18:52:28.161Z,36.90
2017-10-14T18:54:57.793Z,34.87
2017-10-14T18:57:26.886Z,34.90
2017-10-14T18:59:55.558Z,34.80
2017-10-14T19:02:23.990Z,37.03
2017-10-14T19:04:53.929Z,35.67
2017-10-14T19:07:22.324Z,34.20
2017-10-14T19:09:52.200Z,35.77
2017-10-14T19:12:20.852Z,36.87
2017-10-14T19:14:49.250Z,36.37
2017-10-14T19:17:17.642Z,35.50
2017-10-14T19:19:46.822Z,35.30
2017-10-14T19:22:16.578Z,37.17
2017-10-14T19:24:45.982Z,36.00
2017-10-14T19:27:14.345Z,36.13
2017-10-14T19:29:44.446Z,40.00
2017-10-14T19:32:14.508Z,37.40
2017-10-14T19:34:43.010Z,37.23
2017-10-14T19:37:12.079Z,40.50
2017-10-14T19:39:40.484Z,39.00
2017-10-14T19:42:08.906Z,41.67
2017-10-14T19:44:37.318Z,41.43
2017-10-14T19:47:06.741Z,40.80
2017-10-14T19:49:35.113Z,41.07
2017-10-14T19:52:04.923Z,41.60
2017-10-14T19:54:34.433Z,39.90
2017-10-14T19:57:03.726Z,40.93
2017-10-14T19:59:32.094Z,40.73
2017-10-14T20:02:01.666Z,40.80
2017-10-14T20:04:32.157Z,39.67
2017-10-14T20:07:00.530Z,38.70
2017-10-14T20:09:29.216Z,37.13
2017-10-14T20:11:57.590Z,39.73
2017-10-14T20:14:25.945Z,41.37
2017-10-14T20:16:54.657Z,37.17
2017-10-14T20:19:23.011Z,37.00
2017-10-14T20:21:52.946Z,40.83
2017-10-14T20:24:23.116Z,39.60
2017-10-14T20:26:52.708Z,37.57
2017-10-14T20:29:21.828Z,37.17
2017-10-14T20:31:51.614Z,38.63
2017-10-14T20:34:20.766Z,36.87
2017-10-14T20:36:50.695Z,36.70
2017-10-14T20:39:19.364Z,37.60
2017-10-14T20:41:47.745Z,39.27
2017-10-14T20:44:18.286Z,39.10
2017-10-14T20:46:48.613Z,39.30
2017-10-14T20:49:17.518Z,37.20
2017-10-14T20:51:46.699Z,36.83
2017-10-14T20:54:16.047Z,39.03
2017-10-14T20:56:44.403Z,38.07
2017-10-14T20:59:13.047Z,38.90
2017-10-14T21:01:43.145Z,40.70
2017-10-14T21:04:11.524Z,39.17
2017-10-14T21:06:40.678Z,41.40
2017-10-14T21:09:09.034Z,41.73
2017-10-14T21:11:38.517Z,38.20
2017-10-14T21:14:07.056Z,38.70
2017-10-14T21:16:36.867Z,36.20
2017-10-14T21:19:05.675Z,37.10
2017-10-14T21:21:35.004Z,36.90
2017-10-14T21:24:03.385Z,39.30
2017-10-14T21:26:32.569Z,38.87
2017-10-14T21:29:01.803Z,39.07
2017-10-14T21:31:31.791Z,38.17
2017-10-14T21:34:00.979Z,37.33
2017-10-14T21:36:32.197Z,37.70
2017-10-14T21:39:00.742Z,40.27
2017-10-14T21:41:30.584Z,38.10
2017-10-14T21:44:00.896Z,40.40
2017-10-14T21:46:31.671Z,41.10
2017-10-14T21:49:00.059Z,39.87
2017-10-14T21:51:28.429Z,39.57
2017-10-14T21:53:58.324Z,40.10
2017-10-14T21:56:27.242Z,38.80
2017-10-14T21:58:55.623Z,39.23
2017-10-14T22:01:25.102Z,40.03
2017-10-14T22:03:53.468Z,36.67
2017-10-14T22:06:22.489Z,37.60
2017-10-14T22:08:50.906Z,38.27
2017-10-14T22:11:20.203Z,36.47
2017-10-14T22:13:50.147Z,38.00
2017-10-14T22:16:19.830Z,37.23
2017-10-14T22:18:48.855Z,36.63
2017-10-14T22:21:19.544Z,39.90
2017-10-14T22:23:48.810Z,39.23
2017-10-14T22:26:17.616Z,38.13
2017-10-14T22:28:47.256Z,39.50
2017-10-14T22:31:15.993Z,37.67
2017-10-14T22:33:44.802Z,37.67
2017-10-14T22:36:13.349Z,36.83
2017-10-14T22:38:42.418Z,37.20
2017-10-14T22:41:11.551Z,38.00
2017-10-14T22:43:40.219Z,34.07
2017-10-14T22:46:09.410Z,36.47
2017-10-14T22:48:39.817Z,35.07
2017-10-14T22:51:09.352Z,36.03
2017-10-14T22:53:38.334Z,36.60
2017-10-14T22:56:07.359Z,37.77
2017-10-14T22:58:35.734Z,36.17
2017-10-14T23:01:04.184Z,37.93
2017-10-14T23:03:32.526Z,35.67
2017-10-14T23:06:00.983Z,38.93
2017-10-14T23:08:30.218Z,38.50
2017-10-14T23:10:59.373Z,37.67
2017-10-14T23:13:28.649Z,40.40
2017-10-14T23:15:57.039Z,39.70
2017-10-14T23:18:26.163Z,38.97
2017-10-14T23:20:55.531Z,39.20
2017-10-14T23:23:24.001Z,40.07
2017-10-14T23:25:53.154Z,38.93
2017-10-14T23:28:21.498Z,38.83
2017-10-14T23:30:49.951Z,40.87
2017-10-14T23:33:18.302Z,38.57
2017-10-14T23:35:46.656Z,39.23
2017-10-14T23:38:15.033Z,40.87
2017-10-14T23:40:43.378Z,38.27
2017-10-14T23:43:11.734Z,38.80
2017-10-14T23:45:40.131Z,39.87
2017-10-14T23:48:09.281Z,38.03
2017-10-14T23:50:38.322Z,38.87
2017-10-14T23:53:07.628Z,36.60
2017-10-14T23:55:36.752Z,38.13
2017-10-14T23:58:05.113Z,36.17
